sensor_id;sensor_type;location;lat;lon;timestamp;pressure;altitude;pressure_sealevel;temperature;humidity
8366;BME280;4220;42.502;24.188;2022-09-01T00:00:39;95097.47;;;17.77;100.00
8366;BME280;4220;42.502;24.188;2022-09-01T00:03:07;95090.47;;;17.60;100.00
8366;BME280;4220;42.502;24.188;2022-09-01T00:05:35;95049.91;;;17.37;100.00
8366;BME280;4220;42.502;24.188;2022-09-01T00:08:03;95098.78;;;17.54;100.00
8366;BME280;4220;42.502;24.188;2022-09-01T00:10:30;95084.38;;;17.08;100.00
8366;BME280;4220;42.502;24.188;2022-09-01T00:12:57;95089.69;;;16.98;100.00
8366;BME280;4220;42.502;24.188;2022-09-01T00:15:25;95086.97;;;16.93;100.00
8366;BME280;4220;42.502;24.188;2022-09-01T00:17:52;95088.66;;;17.09;100.00
8366;BME280;4220;42.502;24.188;2022-09-01T00:20:19;95089.00;;;17.28;100.00
8366;BME280;4220;42.502;24.188;2022-09-01T00:22:47;95095.16;;;17.28;100.00
8366;BME280;4220;42.502;24.188;2022-09-01T00:25:14;95094.66;;;17.31;100.00
8366;BME280;4220;42.502;24.188;2022-09-01T00:27:43;95088.22;;;17.32;100.00
8366;BME280;4220;42.502;24.188;2022-09-01T00:30:11;95086.06;;;17.29;100.00
8366;BME280;4220;42.502;24.188;2022-09-01T00:32:40;95084.69;;;17.17;100.00
8366;BME280;4220;42.502;24.188;2022-09-01T00:35:11;95086.63;;;17.31;100.00
8366;BME280;4220;42.502;24.188;2022-09-01T00:37:38;95095.75;;;17.45;100.00
8366;BME280;4220;42.502;24.188;2022-09-01T00:40:06;95093.06;;;17.40;100.00
8366;BME280;4220;42.502;24.188;2022-09-01T00:42:34;95083.41;;;17.34;100.00
8366;BME280;4220;42.502;24.188;2022-09-01T00:45:00;95089.13;;;17.53;100.00
8366;BME280;4220;42.502;24.188;2022-09-01T00:47:27;95093.16;;;17.60;100.00
8366;BME280;4220;42.502;24.188;2022-09-01T00:49:56;95084.31;;;17.65;100.00
8366;BME280;4220;42.502;24.188;2022-09-01T00:52:27;95088.88;;;17.64;100.00
8366;BME280;4220;42.502;24.188;2022-09-01T00:54:57;95081.38;;;17.61;100.00
8366;BME280;4220;42.502;24.188;2022-09-01T00:57:26;95073.88;;;17.63;100.00
8366;BME280;4220;42.502;24.188;2022-09-01T00:59:55;95080.81;;;17.59;100.00
8366;BME280;4220;42.502;24.188;2022-09-01T01:02:23;95088.25;;;17.42;100.00
8366;BME280;4220;42.502;24.188;2022-09-01T01:04:50;95082.31;;;17.35;100.00
8366;BME280;4220;42.502;24.188;2022-09-01T01:07:19;95064.38;;;17.41;100.00
8366;BME280;4220;42.502;24.188;2022-09-01T01:09:48;95076.53;;;17.53;100.00
8366;BME280;4220;42.502;24.188;2022-09-01T01:12:16;95066.34;;;17.55;100.00
8366;BME280;4220;42.502;24.188;2022-09-01T01:14:43;95069.03;;;17.66;100.00
8366;BME280;4220;42.502;24.188;2022-09-01T01:17:15;95074.13;;;17.62;100.00
8366;BME280;4220;42.502;24.188;2022-09-01T01:19:44;95061.50;;;17.62;100.00
8366;BME280;4220;42.502;24.188;2022-09-01T01:22:38;95063.41;;;17.67;100.00
8366;BME280;4220;42.502;24.188;2022-09-01T01:25:25;95057.22;;;17.72;100.00
8366;BME280;4220;42.502;24.188;2022-09-01T01:28:03;95053.22;;;17.59;100.00
8366;BME280;4220;42.502;24.188;2022-09-01T01:30:30;95065.72;;;17.43;100.00
8366;BME280;4220;42.502;24.188;2022-09-01T01:33:00;95066.78;;;17.37;100.00
8366;BME280;4220;42.502;24.188;2022-09-01T01:35:27;95066.75;;;17.27;100.00
8366;BME280;4220;42.502;24.188;2022-09-01T01:37:54;95067.78;;;17.16;100.00
8366;BME280;4220;42.502;24.188;2022-09-01T01:40:21;95061.34;;;17.12;100.00
8366;BME280;4220;42.502;24.188;2022-09-01T01:42:51;95059.22;;;17.19;100.00
8366;BME280;4220;42.502;24.188;2022-09-01T01:45:21;95063.47;;;17.15;100.00
8366;BME280;4220;42.502;24.188;2022-09-01T01:47:49;95066.72;;;17.17;100.00
8366;BME280;4220;42.502;24.188;2022-09-01T01:50:18;95066.94;;;17.06;100.00
8366;BME280;4220;42.502;24.188;2022-09-01T01:52:45;95064.81;;;17.13;100.00
8366;BME280;4220;42.502;24.188;2022-09-01T01:55:12;95056.53;;;17.14;100.00
8366;BME280;4220;42.502;24.188;2022-09-01T01:57:44;95056.28;;;17.21;100.00
8366;BME280;4220;42.502;24.188;2022-09-01T02:00:19;95063.03;;;17.33;100.00
8366;BME280;4220;42.502;24.188;2022-09-01T02:02:47;95062.53;;;17.41;100.00
8366;BME280;4220;42.502;24.188;2022-09-01T02:05:19;95051.28;;;17.44;100.00
8366;BME280;4220;42.502;24.188;2022-09-01T02:07:53;95023.06;;;17.27;100.00
8366;BME280;4220;42.502;24.188;2022-09-01T02:10:23;95058.81;;;17.52;100.00
8366;BME280;4220;42.502;24.188;2022-09-01T02:12:50;95056.94;;;17.53;100.00
8366;BME280;4220;42.502;24.188;2022-09-01T02:15:19;95060.91;;;17.45;100.00
8366;BME280;4220;42.502;24.188;2022-09-01T02:17:46;95059.28;;;17.29;100.00
8366;BME280;4220;42.502;24.188;2022-09-01T02:20:14;95059.13;;;16.94;100.00
8366;BME280;4220;42.502;24.188;2022-09-01T02:22:41;95052.59;;;16.33;100.00
8366;BME280;4220;42.502;24.188;2022-09-01T02:25:10;95060.19;;;16.46;100.00
8366;BME280;4220;42.502;24.188;2022-09-01T02:27:41;95063.78;;;16.62;100.00
8366;BME280;4220;42.502;24.188;2022-09-01T02:30:09;95064.69;;;16.77;100.00
8366;BME280;4220;42.502;24.188;2022-09-01T02:32:38;95058.34;;;16.98;100.00
8366;BME280;4220;42.502;24.188;2022-09-01T02:35:06;95057.00;;;17.01;100.00
8366;BME280;4220;42.502;24.188;2022-09-01T02:37:35;95049.44;;;16.88;100.00
8366;BME280;4220;42.502;24.188;2022-09-01T02:40:06;95053.53;;;17.06;100.00
8366;BME280;4220;42.502;24.188;2022-09-01T02:42:38;95051.69;;;17.11;100.00
8366;BME280;4220;42.502;24.188;2022-09-01T02:45:08;95035.88;;;17.10;100.00
8366;BME280;4220;42.502;24.188;2022-09-01T02:47:43;95053.63;;;17.31;100.00
8366;BME280;4220;42.502;24.188;2022-09-01T02:50:14;95057.59;;;17.18;100.00
8366;BME280;4220;42.502;24.188;2022-09-01T02:52:44;95057.78;;;16.91;100.00
8366;BME280;4220;42.502;24.188;2022-09-01T02:55:13;95044.53;;;16.70;100.00
8366;BME280;4220;42.502;24.188;2022-09-01T02:57:47;95053.13;;;16.72;100.00
8366;BME280;4220;42.502;24.188;2022-09-01T03:00:16;95060.69;;;16.85;100.00
8366;BME280;4220;42.502;24.188;2022-09-01T03:02:51;95053.56;;;16.59;100.00
8366;BME280;4220;42.502;24.188;2022-09-01T03:05:20;95052.41;;;16.45;100.00
8366;BME280;4220;42.502;24.188;2022-09-01T03:07:54;95058.06;;;16.48;100.00
8366;BME280;4220;42.502;24.188;2022-09-01T03:10:25;95060.56;;;16.60;100.00
8366;BME280;4220;42.502;24.188;2022-09-01T03:13:00;95061.47;;;16.75;100.00
8366;BME280;4220;42.502;24.188;2022-09-01T03:15:28;95053.41;;;16.75;100.00
8366;BME280;4220;42.502;24.188;2022-09-01T03:17:56;95058.00;;;16.80;100.00
8366;BME280;4220;42.502;24.188;2022-09-01T03:20:25;95064.75;;;16.92;100.00
8366;BME280;4220;42.502;24.188;2022-09-01T03:22:52;95061.31;;;17.02;100.00
8366;BME280;4220;42.502;24.188;2022-09-01T03:25:21;95055.44;;;17.10;100.00
8366;BME280;4220;42.502;24.188;2022-09-01T03:27:49;95058.69;;;17.17;100.00
8366;BME280;4220;42.502;24.188;2022-09-01T03:30:17;95060.03;;;17.20;100.00
8366;BME280;4220;42.502;24.188;2022-09-01T03:32:44;95056.56;;;17.19;100.00
8366;BME280;4220;42.502;24.188;2022-09-01T03:35:13;94991.81;;;16.75;100.00
8366;BME280;4220;42.502;24.188;2022-09-01T03:37:42;95070.22;;;17.23;100.00
8366;BME280;4220;42.502;24.188;2022-09-01T03:40:10;95066.34;;;16.93;100.00
8366;BME280;4220;42.502;24.188;2022-09-01T03:42:37;95068.44;;;16.81;100.00
8366;BME280;4220;42.502;24.188;2022-09-01T03:45:06;95077.78;;;16.79;100.00
8366;BME280;4220;42.502;24.188;2022-09-01T03:47:34;95070.03;;;16.77;100.00
8366;BME280;4220;42.502;24.188;2022-09-01T03:50:07;95055.81;;;16.72;100.00
8366;BME280;4220;42.502;24.188;2022-09-01T03:52:37;95065.47;;;16.73;100.00
8366;BME280;4220;42.502;24.188;2022-09-01T03:55:06;95070.28;;;16.76;100.00
8366;BME280;4220;42.502;24.188;2022-09-01T03:57:34;95064.41;;;16.79;100.00
8366;BME280;4220;42.502;24.188;2022-09-01T04:00:08;95075.16;;;16.89;100.00
8366;BME280;4220;42.502;24.188;2022-09-01T04:02:47;95053.19;;;16.82;100.00
8366;BME280;4220;42.502;24.188;2022-09-01T04:05:16;95074.19;;;17.05;100.00
8366;BME280;4220;42.502;24.188;2022-09-01T04:07:45;95031.22;;;16.85;100.00
8366;BME280;4220;42.502;24.188;2022-09-01T04:10:13;95076.91;;;17.20;100.00
8366;BME280;4220;42.502;24.188;2022-09-01T04:12:40;95033.78;;;16.60;100.00
8366;BME280;4220;42.502;24.188;2022-09-01T04:15:08;95084.16;;;16.63;100.00
8366;BME280;4220;42.502;24.188;2022-09-01T04:17:35;95076.38;;;16.29;100.00
8366;BME280;4220;42.502;24.188;2022-09-01T04:20:20;95084.53;;;16.45;100.00
8366;BME280;4220;42.502;24.188;2022-09-01T04:22:49;95084.09;;;16.58;100.00
8366;BME280;4220;42.502;24.188;2022-09-01T04:25:17;95075.59;;;16.66;100.00
8366;BME280;4220;42.502;24.188;2022-09-01T04:27:48;95080.41;;;16.69;100.00
8366;BME280;4220;42.502;24.188;2022-09-01T04:30:15;95076.19;;;16.78;100.00
8366;BME280;4220;42.502;24.188;2022-09-01T04:32:42;95081.91;;;16.96;100.00
8366;BME280;4220;42.502;24.188;2022-09-01T04:35:11;95085.69;;;17.06;100.00
8366;BME280;4220;42.502;24.188;2022-09-01T04:37:41;95081.97;;;17.07;100.00
8366;BME280;4220;42.502;24.188;2022-09-01T04:40:11;95081.59;;;16.93;100.00
8366;BME280;4220;42.502;24.188;2022-09-01T04:42:39;95087.50;;;16.90;100.00
8366;BME280;4220;42.502;24.188;2022-09-01T04:45:08;95063.13;;;16.91;100.00
8366;BME280;4220;42.502;24.188;2022-09-01T04:47:38;95066.91;;;17.00;100.00
8366;BME280;4220;42.502;24.188;2022-09-01T04:50:08;95077.47;;;17.22;100.00
8366;BME280;4220;42.502;24.188;2022-09-01T04:52:39;95073.75;;;17.38;100.00
8366;BME280;4220;42.502;24.188;2022-09-01T04:55:08;95066.84;;;17.52;100.00
8366;BME280;4220;42.502;24.188;2022-09-01T04:57:43;95073.56;;;17.55;100.00
8366;BME280;4220;42.502;24.188;2022-09-01T05:00:14;95072.53;;;17.61;100.00
8366;BME280;4220;42.502;24.188;2022-09-01T05:02:48;95067.97;;;17.72;100.00
8366;BME280;4220;42.502;24.188;2022-09-01T05:05:17;95077.13;;;17.81;100.00
8366;BME280;4220;42.502;24.188;2022-09-01T05:07:44;95065.31;;;17.87;100.00
8366;BME280;4220;42.502;24.188;2022-09-01T05:10:11;95071.78;;;18.01;100.00
8366;BME280;4220;42.502;24.188;2022-09-01T05:12:38;95071.75;;;18.11;100.00
8366;BME280;4220;42.502;24.188;2022-09-01T05:15:08;95022.38;;;17.82;100.00
8366;BME280;4220;42.502;24.188;2022-09-01T05:17:35;95067.19;;;18.16;100.00
8366;BME280;4220;42.502;24.188;2022-09-01T05:20:04;95047.63;;;18.06;100.00
8366;BME280;4220;42.502;24.188;2022-09-01T05:22:32;95064.78;;;18.30;100.00
8366;BME280;4220;42.502;24.188;2022-09-01T05:25:00;95017.81;;;18.12;100.00
8366;BME280;4220;42.502;24.188;2022-09-01T05:27:39;95066.38;;;18.56;100.00
8366;BME280;4220;42.502;24.188;2022-09-01T05:30:09;95068.53;;;18.69;100.00
8366;BME280;4220;42.502;24.188;2022-09-01T05:32:36;95073.56;;;18.86;100.00
8366;BME280;4220;42.502;24.188;2022-09-01T05:35:05;95055.56;;;18.91;100.00
8366;BME280;4220;42.502;24.188;2022-09-01T05:37:34;95069.19;;;19.10;100.00
8366;BME280;4220;42.502;24.188;2022-09-01T05:40:04;95072.63;;;19.31;100.00
8366;BME280;4220;42.502;24.188;2022-09-01T05:42:31;95064.78;;;19.44;100.00
8366;BME280;4220;42.502;24.188;2022-09-01T05:44:59;95065.78;;;19.53;100.00
8366;BME280;4220;42.502;24.188;2022-09-01T05:47:28;95059.56;;;19.63;100.00
8366;BME280;4220;42.502;24.188;2022-09-01T05:49:54;95057.53;;;19.84;100.00
8366;BME280;4220;42.502;24.188;2022-09-01T05:52:23;95066.03;;;20.01;100.00
8366;BME280;4220;42.502;24.188;2022-09-01T05:54:51;95075.84;;;20.26;100.00
8366;BME280;4220;42.502;24.188;2022-09-01T05:57:18;95077.50;;;20.50;100.00
8366;BME280;4220;42.502;24.188;2022-09-01T05:59:45;95064.19;;;20.64;100.00
8366;BME280;4220;42.502;24.188;2022-09-01T06:02:19;95076.81;;;20.92;100.00
8366;BME280;4220;42.502;24.188;2022-09-01T06:04:47;95078.19;;;21.18;100.00
8366;BME280;4220;42.502;24.188;2022-09-01T06:07:16;95077.06;;;21.43;100.00
8366;BME280;4220;42.502;24.188;2022-09-01T06:09:46;95082.94;;;21.69;100.00
8366;BME280;4220;42.502;24.188;2022-09-01T06:12:14;95078.69;;;21.86;100.00
8366;BME280;4220;42.502;24.188;2022-09-01T06:14:49;95088.22;;;21.79;100.00
8366;BME280;4220;42.502;24.188;2022-09-01T06:17:18;95079.94;;;21.94;100.00
8366;BME280;4220;42.502;24.188;2022-09-01T06:19:51;95076.91;;;22.14;100.00
8366;BME280;4220;42.502;24.188;2022-09-01T06:22:19;95065.81;;;22.16;99.43
8366;BME280;4220;42.502;24.188;2022-09-01T06:24:48;95084.69;;;22.34;98.88
8366;BME280;4220;42.502;24.188;2022-09-01T06:27:16;95072.81;;;22.35;98.67
8366;BME280;4220;42.502;24.188;2022-09-01T06:29:44;95086.66;;;22.47;98.71
8366;BME280;4220;42.502;24.188;2022-09-01T06:32:12;95032.63;;;21.96;98.65
8366;BME280;4220;42.502;24.188;2022-09-01T06:34:40;95085.00;;;22.14;100.00
8366;BME280;4220;42.502;24.188;2022-09-01T06:37:10;95044.75;;;21.99;100.00
8366;BME280;4220;42.502;24.188;2022-09-01T06:39:37;95054.72;;;22.17;100.00
8366;BME280;4220;42.502;24.188;2022-09-01T06:42:04;95079.84;;;22.50;99.71
8366;BME280;4220;42.502;24.188;2022-09-01T06:44:33;95084.66;;;22.71;99.31
8366;BME280;4220;42.502;24.188;2022-09-01T06:47:00;95041.03;;;22.27;100.00
8366;BME280;4220;42.502;24.188;2022-09-01T06:49:27;95070.13;;;22.49;100.00
8366;BME280;4220;42.502;24.188;2022-09-01T06:51:59;95086.16;;;22.45;100.00
8366;BME280;4220;42.502;24.188;2022-09-01T06:54:28;95084.50;;;22.63;100.00
8366;BME280;4220;42.502;24.188;2022-09-01T06:56:58;95085.69;;;22.89;99.70
8366;BME280;4220;42.502;24.188;2022-09-01T06:59:28;95072.06;;;23.08;98.08
8366;BME280;4220;42.502;24.188;2022-09-01T07:01:57;95068.47;;;23.12;98.24
8366;BME280;4220;42.502;24.188;2022-09-01T07:04:26;95073.28;;;23.29;96.98
8366;BME280;4220;42.502;24.188;2022-09-01T07:06:54;95049.22;;;23.27;95.57
8366;BME280;4220;42.502;24.188;2022-09-01T07:09:21;95059.94;;;23.32;95.84
8366;BME280;4220;42.502;24.188;2022-09-01T07:11:49;95067.56;;;23.44;95.94
8366;BME280;4220;42.502;24.188;2022-09-01T07:14:17;95068.50;;;23.53;95.53
8366;BME280;4220;42.502;24.188;2022-09-01T07:16:45;95059.47;;;23.58;95.03
8366;BME280;4220;42.502;24.188;2022-09-01T07:19:12;95043.31;;;23.53;95.17
8366;BME280;4220;42.502;24.188;2022-09-01T07:21:41;95059.03;;;23.64;95.04
8366;BME280;4220;42.502;24.188;2022-09-01T07:24:09;95049.00;;;23.65;94.17
8366;BME280;4220;42.502;24.188;2022-09-01T07:26:37;95043.16;;;23.71;93.66
8366;BME280;4220;42.502;24.188;2022-09-01T07:29:06;95057.63;;;23.80;94.31
8366;BME280;4220;42.502;24.188;2022-09-01T07:31:36;95017.13;;;23.62;94.13
8366;BME280;4220;42.502;24.188;2022-09-01T07:34:06;95063.91;;;23.89;93.61
8366;BME280;4220;42.502;24.188;2022-09-01T07:36:38;95045.13;;;23.93;93.92
8366;BME280;4220;42.502;24.188;2022-09-01T07:39:05;95052.63;;;24.10;93.59
8366;BME280;4220;42.502;24.188;2022-09-01T07:41:32;95058.78;;;24.24;93.79
8366;BME280;4220;42.502;24.188;2022-09-01T07:44:01;95052.44;;;24.28;93.46
8366;BME280;4220;42.502;24.188;2022-09-01T07:46:31;95055.53;;;24.35;94.01
8366;BME280;4220;42.502;24.188;2022-09-01T07:48:58;95056.28;;;24.27;92.78
8366;BME280;4220;42.502;24.188;2022-09-01T07:51:26;95051.63;;;24.28;93.58
8366;BME280;4220;42.502;24.188;2022-09-01T07:53:54;95059.16;;;24.31;93.67
8366;BME280;4220;42.502;24.188;2022-09-01T07:56:23;95061.16;;;24.39;93.42
8366;BME280;4220;42.502;24.188;2022-09-01T07:58:51;95055.16;;;24.50;93.29
8366;BME280;4220;42.502;24.188;2022-09-01T08:01:19;95043.13;;;24.43;92.92
8366;BME280;4220;42.502;24.188;2022-09-01T08:03:50;95040.78;;;24.50;92.50
8366;BME280;4220;42.502;24.188;2022-09-01T08:06:19;95024.66;;;24.45;92.35
8366;BME280;4220;42.502;24.188;2022-09-01T08:08:47;95055.72;;;24.61;91.49
8366;BME280;4220;42.502;24.188;2022-09-01T08:11:16;95038.72;;;24.47;91.56
8366;BME280;4220;42.502;24.188;2022-09-01T08:13:44;95062.59;;;24.67;90.43
8366;BME280;4220;42.502;24.188;2022-09-01T08:16:12;95061.28;;;24.64;90.64
8366;BME280;4220;42.502;24.188;2022-09-01T08:18:39;95057.19;;;24.45;91.70
8366;BME280;4220;42.502;24.188;2022-09-01T08:21:10;95044.50;;;24.54;92.46
8366;BME280;4220;42.502;24.188;2022-09-01T08:23:37;95041.81;;;24.62;91.23
8366;BME280;4220;42.502;24.188;2022-09-01T08:26:05;95043.25;;;24.60;91.20
8366;BME280;4220;42.502;24.188;2022-09-01T08:28:32;95060.16;;;24.79;90.08
8366;BME280;4220;42.502;24.188;2022-09-01T08:30:59;95060.31;;;24.83;87.58
8366;BME280;4220;42.502;24.188;2022-09-01T08:33:30;95056.81;;;24.82;87.86
8366;BME280;4220;42.502;24.188;2022-09-01T08:36:00;95058.16;;;24.93;87.49
8366;BME280;4220;42.502;24.188;2022-09-01T08:38:28;95055.13;;;24.95;87.75
8366;BME280;4220;42.502;24.188;2022-09-01T08:40:57;95062.03;;;25.09;87.21
8366;BME280;4220;42.502;24.188;2022-09-01T08:43:35;95067.09;;;25.33;85.76
8366;BME280;4220;42.502;24.188;2022-09-01T08:46:11;95051.31;;;25.44;85.02
8366;BME280;4220;42.502;24.188;2022-09-01T08:48:41;95059.41;;;25.74;83.60
8366;BME280;4220;42.502;24.188;2022-09-01T08:51:14;95075.25;;;25.89;84.41
8366;BME280;4220;42.502;24.188;2022-09-01T08:53:50;95068.69;;;25.82;84.57
8366;BME280;4220;42.502;24.188;2022-09-01T08:56:21;95068.88;;;25.94;84.08
8366;BME280;4220;42.502;24.188;2022-09-01T08:58:48;95057.19;;;26.02;83.70
8366;BME280;4220;42.502;24.188;2022-09-01T09:01:20;95066.66;;;26.13;84.17
8366;BME280;4220;42.502;24.188;2022-09-01T09:04:03;95059.44;;;26.00;84.40
8366;BME280;4220;42.502;24.188;2022-09-01T09:06:40;95061.66;;;25.98;85.18
8366;BME280;4220;42.502;24.188;2022-09-01T09:09:12;95061.34;;;26.08;84.29
8366;BME280;4220;42.502;24.188;2022-09-01T09:12:00;95052.91;;;26.18;84.67
8366;BME280;4220;42.502;24.188;2022-09-01T09:14:40;95039.00;;;26.28;84.27
8366;BME280;4220;42.502;24.188;2022-09-01T09:17:12;95044.25;;;26.50;84.50
8366;BME280;4220;42.502;24.188;2022-09-01T09:19:41;95053.34;;;26.72;83.55
8366;BME280;4220;42.502;24.188;2022-09-01T09:22:13;95047.56;;;26.82;82.59
8366;BME280;4220;42.502;24.188;2022-09-01T09:24:47;95035.69;;;26.95;81.79
8366;BME280;4220;42.502;24.188;2022-09-01T09:27:17;95047.16;;;27.09;81.44
8366;BME280;4220;42.502;24.188;2022-09-01T09:29:46;95045.28;;;27.01;81.76
8366;BME280;4220;42.502;24.188;2022-09-01T09:32:13;95047.97;;;27.09;81.01
8366;BME280;4220;42.502;24.188;2022-09-01T09:34:41;95048.91;;;27.13;80.79
8366;BME280;4220;42.502;24.188;2022-09-01T09:37:23;95044.91;;;27.11;80.07
8366;BME280;4220;42.502;24.188;2022-09-01T09:40:10;95041.81;;;27.30;80.59
8366;BME280;4220;42.502;24.188;2022-09-01T09:42:41;95037.47;;;27.37;79.62
8366;BME280;4220;42.502;24.188;2022-09-01T09:45:21;95031.19;;;27.37;80.10
8366;BME280;4220;42.502;24.188;2022-09-01T09:47:49;95037.94;;;27.39;78.85
8366;BME280;4220;42.502;24.188;2022-09-01T09:50:23;95032.91;;;27.50;78.76
8366;BME280;4220;42.502;24.188;2022-09-01T09:52:52;95030.16;;;27.58;78.81
8366;BME280;4220;42.502;24.188;2022-09-01T09:55:24;95029.56;;;27.73;78.09
8366;BME280;4220;42.502;24.188;2022-09-01T09:57:55;94982.63;;;27.68;77.59
8366;BME280;4220;42.502;24.188;2022-09-01T10:00:25;95024.56;;;28.25;76.69
8366;BME280;4220;42.502;24.188;2022-09-01T10:02:55;95025.47;;;28.50;74.93
8366;BME280;4220;42.502;24.188;2022-09-01T10:05:34;95017.28;;;28.50;74.10
8366;BME280;4220;42.502;24.188;2022-09-01T10:08:03;95028.91;;;28.59;73.62
8366;BME280;4220;42.502;24.188;2022-09-01T10:10:37;95033.75;;;28.53;73.56
8366;BME280;4220;42.502;24.188;2022-09-01T10:13:08;94994.72;;;28.41;73.90
8366;BME280;4220;42.502;24.188;2022-09-01T10:15:36;95021.03;;;28.90;73.36
8366;BME280;4220;42.502;24.188;2022-09-01T10:18:06;95029.16;;;29.11;72.26
8366;BME280;4220;42.502;24.188;2022-09-01T10:20:37;95034.31;;;29.25;71.26
8366;BME280;4220;42.502;24.188;2022-09-01T10:23:04;95028.06;;;29.48;70.86
8366;BME280;4220;42.502;24.188;2022-09-01T10:25:33;95015.31;;;29.40;70.91
8366;BME280;4220;42.502;24.188;2022-09-01T10:28:07;95031.38;;;29.78;69.74
8366;BME280;4220;42.502;24.188;2022-09-01T10:30:38;95029.97;;;29.96;68.98
8366;BME280;4220;42.502;24.188;2022-09-01T10:33:09;95033.34;;;30.17;68.75
8366;BME280;4220;42.502;24.188;2022-09-01T10:35:39;95023.78;;;30.11;68.64
8366;BME280;4220;42.502;24.188;2022-09-01T10:38:08;94996.03;;;29.97;68.30
8366;BME280;4220;42.502;24.188;2022-09-01T10:40:40;95028.88;;;30.25;68.02
8366;BME280;4220;42.502;24.188;2022-09-01T10:43:32;95029.78;;;30.29;67.77
8366;BME280;4220;42.502;24.188;2022-09-01T10:48:50;95023.91;;;30.15;67.64
8366;BME280;4220;42.502;24.188;2022-09-01T10:51:43;95012.44;;;30.37;67.28
8366;BME280;4220;42.502;24.188;2022-09-01T10:57:31;94973.19;;;30.45;66.19
8366;BME280;4220;42.502;24.188;2022-09-01T11:00:44;94997.22;;;30.95;65.44
8366;BME280;4220;42.502;24.188;2022-09-01T11:06:45;94993.44;;;31.15;65.07
8366;BME280;4220;42.502;24.188;2022-09-01T11:09:22;95004.16;;;31.51;63.61
8366;BME280;4220;42.502;24.188;2022-09-01T11:12:12;95006.53;;;31.53;62.88
8366;BME280;4220;42.502;24.188;2022-09-01T11:14:52;94996.72;;;31.52;61.94
8366;BME280;4220;42.502;24.188;2022-09-01T11:17:22;95006.59;;;31.72;62.21
8366;BME280;4220;42.502;24.188;2022-09-01T11:19:56;95000.78;;;31.93;62.36
8366;BME280;4220;42.502;24.188;2022-09-01T11:22:30;94999.41;;;32.18;62.70
8366;BME280;4220;42.502;24.188;2022-09-01T11:25:13;94982.06;;;32.33;60.21
8366;BME280;4220;42.502;24.188;2022-09-01T11:28:03;94996.94;;;32.32;60.72
8366;BME280;4220;42.502;24.188;2022-09-01T11:30:40;94985.69;;;32.37;60.60
8366;BME280;4220;42.502;24.188;2022-09-01T11:33:30;94996.28;;;32.19;60.00
8366;BME280;4220;42.502;24.188;2022-09-01T11:36:00;94994.56;;;32.11;60.01
8366;BME280;4220;42.502;24.188;2022-09-01T11:38:31;94990.66;;;32.31;58.97
8366;BME280;4220;42.502;24.188;2022-09-01T11:40:59;94987.28;;;32.38;58.93
8366;BME280;4220;42.502;24.188;2022-09-01T11:43:26;94987.13;;;32.69;58.45
8366;BME280;4220;42.502;24.188;2022-09-01T11:46:06;94974.91;;;32.67;58.45
8366;BME280;4220;42.502;24.188;2022-09-01T11:48:35;94974.06;;;32.85;57.76
8366;BME280;4220;42.502;24.188;2022-09-01T11:51:03;94970.06;;;33.02;58.44
8366;BME280;4220;42.502;24.188;2022-09-01T11:53:30;94972.34;;;33.19;57.01
8366;BME280;4220;42.502;24.188;2022-09-01T11:56:14;94970.53;;;33.53;56.70
8366;BME280;4220;42.502;24.188;2022-09-01T11:58:41;94976.16;;;33.60;55.90
8366;BME280;4220;42.502;24.188;2022-09-01T12:01:16;94972.16;;;33.54;54.93
8366;BME280;4220;42.502;24.188;2022-09-01T12:03:44;94970.72;;;33.64;54.23
8366;BME280;4220;42.502;24.188;2022-09-01T12:06:18;94965.47;;;33.32;55.23
8366;BME280;4220;42.502;24.188;2022-09-01T12:08:53;94933.78;;;32.93;55.28
8366;BME280;4220;42.502;24.188;2022-09-01T12:11:23;94968.50;;;33.24;55.06
8366;BME280;4220;42.502;24.188;2022-09-01T12:13:57;94962.00;;;33.13;55.57
8366;BME280;4220;42.502;24.188;2022-09-01T12:16:26;94958.97;;;32.76;56.57
8366;BME280;4220;42.502;24.188;2022-09-01T12:18:55;94948.06;;;32.79;56.76
8366;BME280;4220;42.502;24.188;2022-09-01T12:21:26;94947.72;;;33.04;55.42
8366;BME280;4220;42.502;24.188;2022-09-01T12:23:55;94960.38;;;33.34;54.78
8366;BME280;4220;42.502;24.188;2022-09-01T12:26:35;94958.53;;;33.65;54.12
8366;BME280;4220;42.502;24.188;2022-09-01T12:29:03;94962.78;;;34.14;52.98
8366;BME280;4220;42.502;24.188;2022-09-01T12:31:33;94954.69;;;34.58;51.68
8366;BME280;4220;42.502;24.188;2022-09-01T12:34:00;94956.38;;;34.70;51.25
8366;BME280;4220;42.502;24.188;2022-09-01T12:36:30;94960.34;;;34.72;51.24
8366;BME280;4220;42.502;24.188;2022-09-01T12:39:20;94957.41;;;34.92;50.20
8366;BME280;4220;42.502;24.188;2022-09-01T12:42:01;94946.03;;;35.40;49.38
8366;BME280;4220;42.502;24.188;2022-09-01T12:44:30;94943.56;;;35.79;48.58
8366;BME280;4220;42.502;24.188;2022-09-01T12:47:01;94948.53;;;36.21;47.59
8366;BME280;4220;42.502;24.188;2022-09-01T12:49:39;94931.59;;;36.30;46.83
8366;BME280;4220;42.502;24.188;2022-09-01T12:52:21;94949.81;;;36.41;46.37
8366;BME280;4220;42.502;24.188;2022-09-01T12:54:52;94943.44;;;36.27;46.67
8366;BME280;4220;42.502;24.188;2022-09-01T12:57:25;94937.69;;;35.88;47.72
8366;BME280;4220;42.502;24.188;2022-09-01T13:00:08;94938.06;;;35.83;46.66
8366;BME280;4220;42.502;24.188;2022-09-01T13:02:42;94931.25;;;35.63;46.84
8366;BME280;4220;42.502;24.188;2022-09-01T13:05:24;94930.47;;;35.66;45.79
8366;BME280;4220;42.502;24.188;2022-09-01T13:07:53;94882.38;;;35.09;45.84
8366;BME280;4220;42.502;24.188;2022-09-01T13:10:20;94925.72;;;34.75;47.87
8366;BME280;4220;42.502;24.188;2022-09-01T13:12:47;94937.97;;;34.44;49.47
8366;BME280;4220;42.502;24.188;2022-09-01T13:15:15;94936.56;;;34.57;48.79
8366;BME280;4220;42.502;24.188;2022-09-01T13:17:44;94933.13;;;35.04;47.05
8366;BME280;4220;42.502;24.188;2022-09-01T13:20:10;94936.50;;;35.31;46.99
8366;BME280;4220;42.502;24.188;2022-09-01T13:22:37;94941.88;;;35.13;47.46
8366;BME280;4220;42.502;24.188;2022-09-01T13:25:06;94896.81;;;34.22;49.07
8366;BME280;4220;42.502;24.188;2022-09-01T13:27:33;94932.59;;;34.22;49.61
8366;BME280;4220;42.502;24.188;2022-09-01T13:30:00;94940.06;;;34.21;49.00
8366;BME280;4220;42.502;24.188;2022-09-01T13:32:27;94932.78;;;34.06;49.17